Avoca, Illinois
Current Conditions -  °F | °C
As of 8:15 PM on Saturday 22 Nov 2014 (Local Time) from KPNT Reporting Station
Overcast Overcast  
Wind Chill: 12°   Ceiling: 2200
Heat Index: 12°   Visibility: 10mi
Dew Point:   Wind: 17mph
Humidity: 85%   Direction: 200°SSW
Pressure: 29.9"   Gusts: 28mph
Location:  40.7318°N, 88.524°W
Report Text: KPNT 230215Z AUTO 20015G24KT 10SM BKN022 OVC039 12/09 A2990 RMK AO2 T01170093
Loading
Personal Weather Stations






























Interactive Weather Map New forecast layout! Learn more

10-Day Weather Forecast

Advertisements
Track Severe Weather on mobile